sensor_id;sensor_type;location;lat;lon;timestamp;pressure;altitude;pressure_sealevel;temperature;humidity
16431;BME280;8325;49.284;7.238;2023-05-08T04:04:43;99071.94;;;13.49;100.00
16431;BME280;8325;49.284;7.238;2023-05-08T04:09:17;99073.38;;;13.51;100.00
16431;BME280;8325;49.284;7.238;2023-05-08T04:13:31;99070.13;;;13.49;100.00
16431;BME280;8325;49.284;7.238;2023-05-08T04:18:07;99078.00;;;13.49;100.00
16431;BME280;8325;49.284;7.238;2023-05-08T04:22:23;99077.91;;;13.57;100.00
16431;BME280;8325;49.284;7.238;2023-05-08T04:26:37;99093.41;;;13.52;100.00
16431;BME280;8325;49.284;7.238;2023-05-08T04:30:49;99081.91;;;13.53;100.00
16431;BME280;8325;49.284;7.238;2023-05-08T04:35:03;99090.94;;;13.66;100.00
16431;BME280;8325;49.284;7.238;2023-05-08T04:39:14;99091.25;;;13.71;100.00
16431;BME280;8325;49.284;7.238;2023-05-08T04:43:26;99088.06;;;13.75;100.00
16431;BME280;8325;49.284;7.238;2023-05-08T04:47:38;99089.88;;;13.75;100.00
16431;BME280;8325;49.284;7.238;2023-05-08T04:51:50;99098.03;;;13.80;100.00
16431;BME280;8325;49.284;7.238;2023-05-08T04:56:01;99096.00;;;13.82;100.00
16431;BME280;8325;49.284;7.238;2023-05-08T05:00:13;99095.41;;;13.80;100.00
16431;BME280;8325;49.284;7.238;2023-05-08T05:04:27;99094.75;;;13.78;100.00
16431;BME280;8325;49.284;7.238;2023-05-08T05:08:40;99097.66;;;13.83;100.00
16431;BME280;8325;49.284;7.238;2023-05-08T05:12:51;99100.00;;;13.78;100.00
16431;BME280;8325;49.284;7.238;2023-05-08T05:17:03;99107.72;;;13.79;100.00
16431;BME280;8325;49.284;7.238;2023-05-08T05:21:15;99113.41;;;13.83;100.00
16431;BME280;8325;49.284;7.238;2023-05-08T05:25:27;99122.19;;;13.90;100.00
16431;BME280;8325;49.284;7.238;2023-05-08T05:29:38;99123.09;;;13.97;100.00
16431;BME280;8325;49.284;7.238;2023-05-08T05:33:50;99116.06;;;13.98;100.00
16431;BME280;8325;49.284;7.238;2023-05-08T05:38:03;99109.59;;;14.00;100.00
16431;BME280;8325;49.284;7.238;2023-05-08T05:42:15;99119.47;;;14.13;100.00
16431;BME280;8325;49.284;7.238;2023-05-08T05:46:27;99117.66;;;14.14;100.00
16431;BME280;8325;49.284;7.238;2023-05-08T05:50:45;99114.91;;;14.22;100.00
16431;BME280;8325;49.284;7.238;2023-05-08T05:54:57;99116.06;;;14.34;100.00
16431;BME280;8325;49.284;7.238;2023-05-08T05:59:09;99114.09;;;14.36;100.00
16431;BME280;8325;49.284;7.238;2023-05-08T06:03:21;99121.50;;;14.47;100.00
16431;BME280;8325;49.284;7.238;2023-05-08T06:07:33;99121.25;;;14.57;100.00
16431;BME280;8325;49.284;7.238;2023-05-08T06:11:47;99122.94;;;14.65;100.00
16431;BME280;8325;49.284;7.238;2023-05-08T06:15:58;99115.38;;;14.77;100.00
16431;BME280;8325;49.284;7.238;2023-05-08T06:20:10;99120.44;;;14.78;100.00
16431;BME280;8325;49.284;7.238;2023-05-08T06:24:22;99124.31;;;14.82;100.00
16431;BME280;8325;49.284;7.238;2023-05-08T06:28:34;99121.50;;;14.84;100.00
16431;BME280;8325;49.284;7.238;2023-05-08T06:32:45;99129.16;;;15.00;100.00
16431;BME280;8325;49.284;7.238;2023-05-08T06:36:57;99129.34;;;14.99;100.00
16431;BME280;8325;49.284;7.238;2023-05-08T06:41:09;99124.28;;;14.97;100.00
16431;BME280;8325;49.284;7.238;2023-05-08T06:45:20;99134.66;;;15.05;100.00
16431;BME280;8325;49.284;7.238;2023-05-08T06:49:32;99130.72;;;15.16;100.00
16431;BME280;8325;49.284;7.238;2023-05-08T06:53:45;99133.41;;;15.23;100.00
16431;BME280;8325;49.284;7.238;2023-05-08T06:57:57;99136.03;;;15.23;100.00
16431;BME280;8325;49.284;7.238;2023-05-08T07:02:08;99140.34;;;15.30;100.00
16431;BME280;8325;49.284;7.238;2023-05-08T07:06:20;99136.47;;;15.26;100.00
16431;BME280;8325;49.284;7.238;2023-05-08T07:10:32;99142.22;;;15.36;100.00
16431;BME280;8325;49.284;7.238;2023-05-08T07:14:44;99137.19;;;15.41;100.00
16431;BME280;8325;49.284;7.238;2023-05-08T07:18:55;99149.59;;;15.48;100.00
16431;BME280;8325;49.284;7.238;2023-05-08T07:23:07;99146.78;;;15.49;100.00
16431;BME280;8325;49.284;7.238;2023-05-08T07:27:18;99151.28;;;15.55;100.00
16431;BME280;8325;49.284;7.238;2023-05-08T07:31:30;99148.44;;;15.57;100.00
16431;BME280;8325;49.284;7.238;2023-05-08T07:35:42;99151.66;;;15.52;100.00
16431;BME280;8325;49.284;7.238;2023-05-08T07:39:53;99145.97;;;15.49;100.00
16431;BME280;8325;49.284;7.238;2023-05-08T07:44:05;99152.09;;;15.56;100.00
16431;BME280;8325;49.284;7.238;2023-05-08T07:48:16;99153.34;;;15.60;100.00
16431;BME280;8325;49.284;7.238;2023-05-08T07:52:28;99154.28;;;15.74;100.00
16431;BME280;8325;49.284;7.238;2023-05-08T07:56:39;99153.44;;;15.73;100.00
16431;BME280;8325;49.284;7.238;2023-05-08T08:00:51;99155.16;;;15.87;100.00
16431;BME280;8325;49.284;7.238;2023-05-08T08:05:06;99156.22;;;15.93;100.00
16431;BME280;8325;49.284;7.238;2023-05-08T08:09:18;99169.44;;;16.00;100.00
16431;BME280;8325;49.284;7.238;2023-05-08T08:13:30;99179.13;;;15.93;100.00
16431;BME280;8325;49.284;7.238;2023-05-08T08:17:43;99177.44;;;15.85;100.00
16431;BME280;8325;49.284;7.238;2023-05-08T08:21:54;99179.00;;;15.79;100.00
16431;BME280;8325;49.284;7.238;2023-05-08T08:26:06;99179.66;;;15.81;100.00
16431;BME280;8325;49.284;7.238;2023-05-08T08:30:17;99177.41;;;15.78;100.00
16431;BME280;8325;49.284;7.238;2023-05-08T08:34:29;99182.66;;;15.78;100.00
16431;BME280;8325;49.284;7.238;2023-05-08T08:38:43;99181.91;;;15.84;100.00
16431;BME280;8325;49.284;7.238;2023-05-08T08:42:54;99184.41;;;15.93;100.00
16431;BME280;8325;49.284;7.238;2023-05-08T08:47:09;99178.66;;;16.17;100.00
16431;BME280;8325;49.284;7.238;2023-05-08T08:51:31;99178.34;;;16.40;100.00
16431;BME280;8325;49.284;7.238;2023-05-08T08:55:45;99179.66;;;16.64;100.00
16431;BME280;8325;49.284;7.238;2023-05-08T08:59:57;99181.38;;;16.78;100.00
16431;BME280;8325;49.284;7.238;2023-05-08T09:04:10;99176.94;;;16.99;100.00
16431;BME280;8325;49.284;7.238;2023-05-08T09:08:22;99186.31;;;17.08;100.00
16431;BME280;8325;49.284;7.238;2023-05-08T09:12:33;99187.31;;;17.07;100.00
16431;BME280;8325;49.284;7.238;2023-05-08T09:16:45;99184.06;;;17.05;100.00
16431;BME280;8325;49.284;7.238;2023-05-08T09:20:57;99189.00;;;17.35;100.00
16431;BME280;8325;49.284;7.238;2023-05-08T09:25:10;99182.09;;;17.47;100.00
16431;BME280;8325;49.284;7.238;2023-05-08T09:29:22;99184.31;;;17.50;99.23
16431;BME280;8325;49.284;7.238;2023-05-08T09:33:43;99180.66;;;17.58;98.28
16431;BME280;8325;49.284;7.238;2023-05-08T09:37:54;99188.22;;;17.81;97.72
16431;BME280;8325;49.284;7.238;2023-05-08T09:42:08;99197.13;;;17.93;97.92
16431;BME280;8325;49.284;7.238;2023-05-08T09:50:32;99193.88;;;18.04;95.71
16431;BME280;8325;49.284;7.238;2023-05-08T09:54:44;99187.56;;;18.05;95.08
16431;BME280;8325;49.284;7.238;2023-05-08T09:58:55;99193.06;;;18.10;95.86
16431;BME280;8325;49.284;7.238;2023-05-08T10:03:07;99186.50;;;18.13;92.95
16431;BME280;8325;49.284;7.238;2023-05-08T10:07:33;99184.81;;;18.38;92.75
16431;BME280;8325;49.284;7.238;2023-05-08T10:11:50;99175.81;;;18.53;91.40
16431;BME280;8325;49.284;7.238;2023-05-08T10:16:07;99180.63;;;18.62;91.53
16431;BME280;8325;49.284;7.238;2023-05-08T10:20:23;99176.81;;;19.03;89.95
16431;BME280;8325;49.284;7.238;2023-05-08T10:24:39;99171.50;;;19.03;87.27
16431;BME280;8325;49.284;7.238;2023-05-08T10:28:56;99170.38;;;18.86;88.35
16431;BME280;8325;49.284;7.238;2023-05-08T10:33:09;99171.50;;;19.03;86.07
16431;BME280;8325;49.284;7.238;2023-05-08T10:37:22;99162.97;;;19.01;87.63
16431;BME280;8325;49.284;7.238;2023-05-08T10:41:35;99156.47;;;18.97;86.89
16431;BME280;8325;49.284;7.238;2023-05-08T10:45:46;99158.84;;;18.74;86.50
16431;BME280;8325;49.284;7.238;2023-05-08T10:50:17;99161.03;;;18.83;87.26
16431;BME280;8325;49.284;7.238;2023-05-08T10:54:47;99150.47;;;18.77;86.93
16431;BME280;8325;49.284;7.238;2023-05-08T10:59:01;99150.09;;;18.67;88.43
16431;BME280;8325;49.284;7.238;2023-05-08T11:03:16;99150.84;;;18.42;89.49
16431;BME280;8325;49.284;7.238;2023-05-08T11:07:53;99152.66;;;18.35;89.45
16431;BME280;8325;49.284;7.238;2023-05-08T11:12:07;99148.56;;;18.46;89.55
16431;BME280;8325;49.284;7.238;2023-05-08T11:21:20;99136.13;;;18.53;89.67
16431;BME280;8325;49.284;7.238;2023-05-08T11:25:41;99145.25;;;18.63;88.99
16431;BME280;8325;49.284;7.238;2023-05-08T11:30:23;99137.97;;;18.52;89.87
16431;BME280;8325;49.284;7.238;2023-05-08T11:39:08;99133.31;;;18.86;90.76
16431;BME280;8325;49.284;7.238;2023-05-08T11:47:46;99126.50;;;19.28;89.64
16431;BME280;8325;49.284;7.238;2023-05-08T11:51:58;99119.19;;;19.30;87.81
16431;BME280;8325;49.284;7.238;2023-05-08T11:56:10;99118.50;;;19.35;87.57
16431;BME280;8325;49.284;7.238;2023-05-08T12:00:22;99118.81;;;19.45;nan
16431;BME280;8325;49.284;7.238;2023-05-08T12:04:42;99123.78;;;19.60;87.13
16431;BME280;8325;49.284;7.238;2023-05-08T12:08:54;99118.91;;;19.57;85.76
16431;BME280;8325;49.284;7.238;2023-05-08T12:13:17;99113.09;;;19.48;87.08
16431;BME280;8325;49.284;7.238;2023-05-08T12:17:29;99122.81;;;19.54;87.40
16431;BME280;8325;49.284;7.238;2023-05-08T12:21:45;99119.59;;;19.52;86.87
16431;BME280;8325;49.284;7.238;2023-05-08T12:25:59;99116.28;;;19.57;86.83
16431;BME280;8325;49.284;7.238;2023-05-08T12:30:13;99118.91;;;19.57;87.10
16431;BME280;8325;49.284;7.238;2023-05-08T12:34:25;99126.28;;;19.55;87.28
16431;BME280;8325;49.284;7.238;2023-05-08T12:38:41;99123.91;;;19.47;87.17
16431;BME280;8325;49.284;7.238;2023-05-08T12:42:52;99124.28;;;19.50;88.50
16431;BME280;8325;49.284;7.238;2023-05-08T12:47:04;99125.22;;;19.38;89.30
16431;BME280;8325;49.284;7.238;2023-05-08T12:51:16;99125.66;;;19.35;89.39
16431;BME280;8325;49.284;7.238;2023-05-08T12:55:29;99120.72;;;19.38;90.17
16431;BME280;8325;49.284;7.238;2023-05-08T12:59:42;99122.34;;;19.39;89.82
16431;BME280;8325;49.284;7.238;2023-05-08T13:03:54;99123.97;;;19.40;89.08
16431;BME280;8325;49.284;7.238;2023-05-08T13:08:13;99118.38;;;19.48;89.25
16431;BME280;8325;49.284;7.238;2023-05-08T13:12:24;99110.16;;;19.57;88.01
16431;BME280;8325;49.284;7.238;2023-05-08T13:16:45;99112.53;;;19.21;84.98
16431;BME280;8325;49.284;7.238;2023-05-08T13:21:01;99108.38;;;19.50;86.89
16431;BME280;8325;49.284;7.238;2023-05-08T13:25:13;99107.53;;;19.57;86.67
16431;BME280;8325;49.284;7.238;2023-05-08T13:29:25;99103.09;;;19.50;84.07
16431;BME280;8325;49.284;7.238;2023-05-08T13:33:36;99098.59;;;19.94;84.35
16431;BME280;8325;49.284;7.238;2023-05-08T13:37:48;99100.78;;;20.16;83.56
16431;BME280;8325;49.284;7.238;2023-05-08T13:42:00;99100.00;;;20.45;82.07
16431;BME280;8325;49.284;7.238;2023-05-08T13:46:11;99089.28;;;20.71;80.16
16431;BME280;8325;49.284;7.238;2023-05-08T13:50:23;99088.69;;;20.38;79.05
16431;BME280;8325;49.284;7.238;2023-05-08T13:54:35;99086.97;;;19.95;81.99
16431;BME280;8325;49.284;7.238;2023-05-08T13:58:46;99081.34;;;20.04;82.35
16431;BME280;8325;49.284;7.238;2023-05-08T14:02:58;99075.41;;;19.71;82.26
16431;BME280;8325;49.284;7.238;2023-05-08T14:07:09;99078.84;;;19.72;81.63
16431;BME280;8325;49.284;7.238;2023-05-08T14:11:21;99071.88;;;19.77;82.31
16431;BME280;8325;49.284;7.238;2023-05-08T14:15:32;99066.41;;;19.91;81.63
16431;BME280;8325;49.284;7.238;2023-05-08T14:19:48;99058.22;;;19.55;81.65
16431;BME280;8325;49.284;7.238;2023-05-08T14:23:59;99067.78;;;19.57;81.93
16431;BME280;8325;49.284;7.238;2023-05-08T14:28:11;99063.59;;;19.49;82.13
16431;BME280;8325;49.284;7.238;2023-05-08T14:32:23;99064.53;;;19.54;82.90
16431;BME280;8325;49.284;7.238;2023-05-08T14:36:34;99070.69;;;19.48;85.43
16431;BME280;8325;49.284;7.238;2023-05-08T14:40:49;99072.75;;;19.28;87.51
16431;BME280;8325;49.284;7.238;2023-05-08T14:45:01;99060.69;;;19.32;87.01
16431;BME280;8325;49.284;7.238;2023-05-08T14:49:13;99053.47;;;19.39;87.25
16431;BME280;8325;49.284;7.238;2023-05-08T14:53:35;99054.94;;;19.35;87.92
16431;BME280;8325;49.284;7.238;2023-05-08T14:57:48;99053.88;;;19.43;86.62
16431;BME280;8325;49.284;7.238;2023-05-08T15:01:59;99052.88;;;19.19;88.62
16431;BME280;8325;49.284;7.238;2023-05-08T15:06:11;99049.31;;;19.06;89.76
16431;BME280;8325;49.284;7.238;2023-05-08T15:10:24;99069.59;;;18.88;91.34
16431;BME280;8325;49.284;7.238;2023-05-08T15:14:35;99077.38;;;18.82;90.10
16431;BME280;8325;49.284;7.238;2023-05-08T15:18:47;99075.25;;;18.59;89.85
16431;BME280;8325;49.284;7.238;2023-05-08T15:22:58;99077.63;;;18.36;88.89
16431;BME280;8325;49.284;7.238;2023-05-08T15:27:10;99079.50;;;18.29;90.23
16431;BME280;8325;49.284;7.238;2023-05-08T15:31:22;99085.25;;;18.12;92.09
16431;BME280;8325;49.284;7.238;2023-05-08T15:35:33;99089.69;;;18.18;91.10
16431;BME280;8325;49.284;7.238;2023-05-08T15:39:45;99095.81;;;18.12;91.21
16431;BME280;8325;49.284;7.238;2023-05-08T15:43:56;99113.50;;;18.18;93.35
16431;BME280;8325;49.284;7.238;2023-05-08T15:48:08;99119.41;;;18.14;98.29
16431;BME280;8325;49.284;7.238;2023-05-08T15:52:19;99127.59;;;17.99;100.00
16431;BME280;8325;49.284;7.238;2023-05-08T15:56:33;99123.56;;;17.77;100.00
16431;BME280;8325;49.284;7.238;2023-05-08T16:00:44;99124.38;;;17.57;100.00
16431;BME280;8325;49.284;7.238;2023-05-08T16:04:56;99120.34;;;17.61;100.00
16431;BME280;8325;49.284;7.238;2023-05-08T16:09:07;99116.47;;;17.44;100.00
16431;BME280;8325;49.284;7.238;2023-05-08T16:13:19;99110.19;;;17.32;100.00
16431;BME280;8325;49.284;7.238;2023-05-08T16:17:31;99108.47;;;16.71;100.00
16431;BME280;8325;49.284;7.238;2023-05-08T16:21:46;99115.75;;;16.62;100.00
16431;BME280;8325;49.284;7.238;2023-05-08T16:26:00;99109.69;;;16.68;100.00
16431;BME280;8325;49.284;7.238;2023-05-08T16:30:12;99109.91;;;16.67;100.00
16431;BME280;8325;49.284;7.238;2023-05-08T16:34:23;99109.72;;;16.75;100.00
16431;BME280;8325;49.284;7.238;2023-05-08T16:38:35;99102.84;;;16.80;100.00
16431;BME280;8325;49.284;7.238;2023-05-08T16:42:46;99108.97;;;17.01;100.00
16431;BME280;8325;49.284;7.238;2023-05-08T16:46:58;99102.25;;;17.05;100.00
16431;BME280;8325;49.284;7.238;2023-05-08T16:51:10;99098.63;;;17.06;100.00
16431;BME280;8325;49.284;7.238;2023-05-08T16:55:21;99093.53;;;17.11;100.00
16431;BME280;8325;49.284;7.238;2023-05-08T16:59:33;99098.63;;;17.19;100.00
16431;BME280;8325;49.284;7.238;2023-05-08T17:03:44;99095.16;;;17.25;100.00
16431;BME280;8325;49.284;7.238;2023-05-08T17:07:56;99100.03;;;17.29;100.00
16431;BME280;8325;49.284;7.238;2023-05-08T17:12:07;99098.81;;;17.38;100.00
16431;BME280;8325;49.284;7.238;2023-05-08T17:16:19;99107.34;;;17.26;100.00
16431;BME280;8325;49.284;7.238;2023-05-08T17:20:31;99111.81;;;17.26;100.00
16431;BME280;8325;49.284;7.238;2023-05-08T17:24:45;99108.97;;;17.21;100.00
16431;BME280;8325;49.284;7.238;2023-05-08T17:28:57;99108.38;;;17.19;100.00
16431;BME280;8325;49.284;7.238;2023-05-08T17:33:08;99116.06;;;17.07;100.00
16431;BME280;8325;49.284;7.238;2023-05-08T17:37:20;99108.16;;;17.00;100.00
16431;BME280;8325;49.284;7.238;2023-05-08T17:41:31;99109.38;;;16.98;100.00
16431;BME280;8325;49.284;7.238;2023-05-08T17:45:43;99116.66;;;16.83;100.00
16431;BME280;8325;49.284;7.238;2023-05-08T17:49:55;99118.47;;;16.89;100.00
16431;BME280;8325;49.284;7.238;2023-05-08T17:54:07;99129.22;;;16.80;100.00
16431;BME280;8325;49.284;7.238;2023-05-08T17:58:19;99125.38;;;16.76;100.00
16431;BME280;8325;49.284;7.238;2023-05-08T18:02:30;99128.97;;;16.69;100.00
16431;BME280;8325;49.284;7.238;2023-05-08T18:06:42;99136.44;;;16.65;100.00
16431;BME280;8325;49.284;7.238;2023-05-08T18:10:54;99136.44;;;16.65;100.00
16431;BME280;8325;49.284;7.238;2023-05-08T18:15:06;99142.09;;;16.49;100.00
16431;BME280;8325;49.284;7.238;2023-05-08T18:19:18;99137.19;;;16.39;100.00
16431;BME280;8325;49.284;7.238;2023-05-08T18:23:29;99136.41;;;16.45;100.00
16431;BME280;8325;49.284;7.238;2023-05-08T18:27:41;99128.25;;;16.40;100.00
16431;BME280;8325;49.284;7.238;2023-05-08T18:31:53;99131.91;;;16.32;100.00
16431;BME280;8325;49.284;7.238;2023-05-08T18:36:05;99122.13;;;16.26;100.00
16431;BME280;8325;49.284;7.238;2023-05-08T18:40:18;99120.50;;;16.25;100.00
16431;BME280;8325;49.284;7.238;2023-05-08T18:44:29;99119.50;;;16.26;100.00
16431;BME280;8325;49.284;7.238;2023-05-08T18:48:41;99119.50;;;16.26;100.00
16431;BME280;8325;49.284;7.238;2023-05-08T18:52:52;99121.28;;;16.19;100.00
16431;BME280;8325;49.284;7.238;2023-05-08T18:57:04;99125.31;;;16.15;100.00
16431;BME280;8325;49.284;7.238;2023-05-08T19:01:15;99127.50;;;16.05;100.00
16431;BME280;8325;49.284;7.238;2023-05-08T19:05:30;99119.38;;;16.00;100.00
16431;BME280;8325;49.284;7.238;2023-05-08T19:09:42;99119.97;;;15.95;100.00
16431;BME280;8325;49.284;7.238;2023-05-08T19:13:53;99112.25;;;15.94;100.00
16431;BME280;8325;49.284;7.238;2023-05-08T19:18:06;99105.25;;;15.79;100.00
16431;BME280;8325;49.284;7.238;2023-05-08T19:22:19;99122.28;;;15.77;100.00
16431;BME280;8325;49.284;7.238;2023-05-08T19:26:30;99120.22;;;15.72;100.00
16431;BME280;8325;49.284;7.238;2023-05-08T19:30:42;99126.44;;;15.64;100.00
16431;BME280;8325;49.284;7.238;2023-05-08T19:34:53;99135.16;;;15.65;100.00
16431;BME280;8325;49.284;7.238;2023-05-08T19:39:07;99128.66;;;15.61;100.00
16431;BME280;8325;49.284;7.238;2023-05-08T19:43:19;99128.06;;;15.65;100.00
16431;BME280;8325;49.284;7.238;2023-05-08T19:47:31;99137.16;;;15.63;100.00
16431;BME280;8325;49.284;7.238;2023-05-08T19:51:42;99145.59;;;15.52;100.00
16431;BME280;8325;49.284;7.238;2023-05-08T19:55:54;99148.78;;;15.47;100.00
16431;BME280;8325;49.284;7.238;2023-05-08T20:00:06;99150.22;;;15.50;100.00
16431;BME280;8325;49.284;7.238;2023-05-08T20:04:18;99141.31;;;15.51;100.00
16431;BME280;8325;49.284;7.238;2023-05-08T20:08:29;99141.53;;;15.49;100.00
16431;BME280;8325;49.284;7.238;2023-05-08T20:12:41;99141.31;;;15.51;100.00
16431;BME280;8325;49.284;7.238;2023-05-08T20:16:52;99136.28;;;15.56;100.00
16431;BME280;8325;49.284;7.238;2023-05-08T20:21:04;99130.22;;;15.55;100.00
16431;BME280;8325;49.284;7.238;2023-05-08T20:25:16;99131.22;;;15.54;100.00
16431;BME280;8325;49.284;7.238;2023-05-08T20:29:28;99133.28;;;15.59;100.00
16431;BME280;8325;49.284;7.238;2023-05-08T20:33:39;99139.56;;;15.58;100.00
16431;BME280;8325;49.284;7.238;2023-05-08T20:37:51;99142.19;;;15.58;100.00
16431;BME280;8325;49.284;7.238;2023-05-08T20:42:02;99136.47;;;15.54;100.00
16431;BME280;8325;49.284;7.238;2023-05-08T20:46:14;99125.34;;;15.52;100.00
16431;BME280;8325;49.284;7.238;2023-05-08T20:50:25;99130.19;;;15.49;100.00
16431;BME280;8325;49.284;7.238;2023-05-08T20:54:37;99124.91;;;15.49;100.00
16431;BME280;8325;49.284;7.238;2023-05-08T20:58:48;99130.19;;;15.49;100.00
16431;BME280;8325;49.284;7.238;2023-05-08T21:03:00;99126.91;;;15.47;100.00
16431;BME280;8325;49.284;7.238;2023-05-08T21:07:12;99126.28;;;15.45;100.00
16431;BME280;8325;49.284;7.238;2023-05-08T21:11:24;99120.84;;;15.46;100.00
16431;BME280;8325;49.284;7.238;2023-05-08T21:15:35;99121.66;;;15.47;100.00
16431;BME280;8325;49.284;7.238;2023-05-08T21:19:47;99120.63;;;15.48;100.00
16431;BME280;8325;49.284;7.238;2023-05-08T21:23:58;99115.75;;;15.45;100.00
16431;BME280;8325;49.284;7.238;2023-05-08T21:28:10;99123.66;;;15.45;100.00
